createdAt,value
2018-11-11T00:00:29.207Z,0
2018-11-11T00:01:38.790Z,0
2018-11-11T00:02:48.658Z,0
2018-11-11T00:03:58.777Z,0
2018-11-11T00:05:08.644Z,0
2018-11-11T00:06:18.496Z,0
2018-11-11T00:07:28.624Z,0
2018-11-11T00:08:38.477Z,0
2018-11-11T00:09:48.325Z,0
2018-11-11T00:10:58.447Z,0
2018-11-11T00:12:08.296Z,0
2018-11-11T00:13:18.470Z,0
2018-11-11T00:14:28.605Z,0
2018-11-11T00:15:38.469Z,0
2018-11-11T00:16:48.595Z,0
2018-11-11T00:17:58.727Z,0
2018-11-11T00:19:08.875Z,0
2018-11-11T00:20:19.022Z,0
2018-11-11T00:21:28.889Z,0
2018-11-11T00:22:38.808Z,0
2018-11-11T00:23:48.939Z,0
2018-11-11T00:24:59.133Z,0
2018-11-11T00:26:08.989Z,0
2018-11-11T00:27:19.115Z,0
2018-11-11T00:28:29.136Z,0
2018-11-11T00:29:39.292Z,0
2018-11-11T00:30:49.433Z,0
2018-11-11T00:31:59.556Z,0
2018-11-11T00:33:09.410Z,0
2018-11-11T00:34:19.533Z,0
2018-11-11T00:35:29.655Z,0
2018-11-11T00:36:39.507Z,0
2018-11-11T00:37:49.367Z,0
2018-11-11T00:38:59.493Z,0
2018-11-11T00:40:09.359Z,0
2018-11-11T00:41:19.488Z,0
2018-11-11T00:42:29.619Z,0
2018-11-11T00:43:39.472Z,0
2018-11-11T00:44:48.776Z,0
2018-11-11T00:45:58.625Z,0
2018-11-11T00:47:08.474Z,0
2018-11-11T00:48:18.328Z,0
2018-11-11T00:49:28.450Z,0
2018-11-11T00:50:38.027Z,0
2018-11-11T00:51:47.051Z,0
2018-11-11T00:52:56.629Z,0
2018-11-11T00:54:06.206Z,0
2018-11-11T00:55:16.333Z,0
2018-11-11T00:56:26.456Z,0
2018-11-11T00:57:36.306Z,0
2018-11-11T00:58:46.158Z,0
2018-11-11T00:59:56.017Z,0
2018-11-11T01:01:05.872Z,0
2018-11-11T01:02:15.727Z,0
2018-11-11T01:03:25.587Z,0
2018-11-11T01:04:35.722Z,0
2018-11-11T01:05:45.627Z,0
2018-11-11T01:06:55.749Z,0
2018-11-11T01:08:05.608Z,0
2018-11-11T01:09:15.748Z,0
2018-11-11T01:10:25.873Z,0
2018-11-11T01:11:36.000Z,0
2018-11-11T01:12:45.868Z,0
2018-11-11T01:13:55.724Z,0
2018-11-11T01:15:05.305Z,0
2018-11-11T01:16:15.157Z,0
2018-11-11T01:17:25.357Z,0
2018-11-11T01:18:35.203Z,0
2018-11-11T01:19:44.779Z,0
2018-11-11T01:20:54.905Z,0
2018-11-11T01:22:05.026Z,0
2018-11-11T01:23:14.886Z,0
2018-11-11T01:24:25.023Z,0
2018-11-11T01:25:34.875Z,0
2018-11-11T01:26:44.458Z,0
2018-11-11T01:27:54.596Z,0
2018-11-11T01:29:04.175Z,0
2018-11-11T01:30:14.309Z,0
2018-11-11T01:31:24.441Z,0
2018-11-11T01:32:34.291Z,0
2018-11-11T01:33:44.144Z,0
2018-11-11T01:34:54.001Z,0
2018-11-11T01:36:04.136Z,0
2018-11-11T01:37:13.992Z,0
2018-11-11T01:38:23.846Z,0
2018-11-11T01:39:33.156Z,0
2018-11-11T01:40:43.013Z,0
2018-11-11T01:41:53.179Z,0
2018-11-11T01:43:03.310Z,0
2018-11-11T01:44:12.884Z,0
2018-11-11T01:45:22.733Z,0
2018-11-11T01:46:32.856Z,0
2018-11-11T01:47:42.981Z,0
2018-11-11T01:48:53.115Z,0
2018-11-11T01:50:03.244Z,0
2018-11-11T01:51:13.092Z,0
2018-11-11T01:52:23.223Z,0
2018-11-11T01:53:33.349Z,0
2018-11-11T01:54:43.479Z,0
2018-11-11T01:55:53.057Z,0
2018-11-11T01:57:02.629Z,0
2018-11-11T01:58:12.481Z,0
2018-11-11T01:59:22.055Z,0
2018-11-11T02:00:32.184Z,0
2018-11-11T02:01:42.033Z,0
2018-11-11T02:02:52.154Z,0
2018-11-11T02:04:02.010Z,0
2018-11-11T02:05:11.590Z,0
2018-11-11T02:06:21.443Z,0
2018-11-11T02:07:31.563Z,0
2018-11-11T02:08:41.138Z,0
2018-11-11T02:09:51.873Z,0
2018-11-11T02:11:02.340Z,0
2018-11-11T02:12:12.204Z,0
2018-11-11T02:13:22.331Z,0
2018-11-11T02:14:32.181Z,0
2018-11-11T02:15:42.325Z,0
2018-11-11T02:16:52.459Z,0
2018-11-11T02:18:02.997Z,0
2018-11-11T02:19:13.170Z,0
2018-11-11T02:20:23.024Z,0
2018-11-11T02:21:33.014Z,0
2018-11-11T02:22:42.698Z,0
2018-11-11T02:23:52.555Z,0
2018-11-11T02:25:02.412Z,0
2018-11-11T02:26:12.545Z,0
2018-11-11T02:27:22.408Z,0
2018-11-11T02:28:32.267Z,0
2018-11-11T02:29:42.115Z,0
2018-11-11T02:30:52.251Z,0
2018-11-11T02:32:02.378Z,0
2018-11-11T02:33:11.962Z,0
2018-11-11T02:34:21.820Z,0
2018-11-11T02:35:31.962Z,0
2018-11-11T02:36:41.814Z,0
2018-11-11T02:37:52.274Z,0
2018-11-11T02:39:02.439Z,0
2018-11-11T02:40:12.324Z,0
2018-11-11T02:41:22.475Z,0
2018-11-11T02:42:32.335Z,0
2018-11-11T02:43:42.190Z,0
2018-11-11T02:44:52.333Z,0
2018-11-11T02:46:02.192Z,0
2018-11-11T02:47:11.776Z,0
2018-11-11T02:48:21.909Z,0
2018-11-11T02:49:31.772Z,0
2018-11-11T02:50:41.645Z,0
2018-11-11T02:51:51.493Z,0
2018-11-11T02:53:01.641Z,0
2018-11-11T02:54:10.943Z,0
2018-11-11T02:55:20.856Z,0
2018-11-11T02:56:30.440Z,0
2018-11-11T02:57:40.293Z,0
2018-11-11T02:58:50.151Z,0
2018-11-11T03:00:00.279Z,0
2018-11-11T03:01:10.143Z,0
2018-11-11T03:02:20.057Z,0
2018-11-11T03:03:29.909Z,0
2018-11-11T03:04:40.528Z,0
2018-11-11T03:05:50.391Z,0
2018-11-11T03:07:00.252Z,0
2018-11-11T03:08:10.102Z,0
2018-11-11T03:09:19.973Z,0
2018-11-11T03:10:29.845Z,0
2018-11-11T03:11:39.989Z,0
2018-11-11T03:12:50.118Z,0
2018-11-11T03:14:00.299Z,0
2018-11-11T03:15:10.164Z,0
2018-11-11T03:16:19.795Z,0
2018-11-11T03:17:29.918Z,0
2018-11-11T03:18:39.766Z,0
2018-11-11T03:19:49.897Z,0
2018-11-11T03:20:59.749Z,0
2018-11-11T03:22:09.896Z,0
2018-11-11T03:23:20.038Z,0
2018-11-11T03:24:30.179Z,0
2018-11-11T03:25:40.056Z,0
2018-11-11T03:26:49.911Z,0
2018-11-11T03:27:59.766Z,0
2018-11-11T03:29:09.616Z,0
2018-11-11T03:30:19.804Z,0
2018-11-11T03:31:29.390Z,0
2018-11-11T03:32:39.556Z,0
2018-11-11T03:33:49.689Z,0
2018-11-11T03:34:59.821Z,0
2018-11-11T03:36:09.678Z,0
2018-11-11T03:37:19.810Z,0
2018-11-11T03:38:29.937Z,0
2018-11-11T03:39:40.067Z,0
2018-11-11T03:40:49.921Z,0
2018-11-11T03:42:00.059Z,0
2018-11-11T03:43:09.360Z,0
2018-11-11T03:44:19.212Z,0
2018-11-11T03:45:29.342Z,0
2018-11-11T03:46:39.197Z,0
2018-11-11T03:47:48.774Z,0
2018-11-11T03:48:58.923Z,0
2018-11-11T03:50:08.775Z,0
2018-11-11T03:51:18.916Z,0
2018-11-11T03:52:29.037Z,0
2018-11-11T03:53:38.897Z,0
2018-11-11T03:54:48.751Z,0
2018-11-11T03:55:58.602Z,0
2018-11-11T03:57:08.737Z,0
2018-11-11T03:58:18.316Z,0
2018-11-11T03:59:27.895Z,0
2018-11-11T04:00:37.222Z,0
2018-11-11T04:01:47.087Z,0
2018-11-11T04:02:57.223Z,0
2018-11-11T04:04:06.524Z,0
2018-11-11T04:05:16.408Z,0
2018-11-11T04:06:26.541Z,0
2018-11-11T04:07:36.399Z,0
2018-11-11T04:08:46.532Z,0
2018-11-11T04:09:56.111Z,0
2018-11-11T04:11:05.972Z,0
2018-11-11T04:12:15.560Z,0
2018-11-11T04:13:25.142Z,0
2018-11-11T04:14:35.286Z,0
2018-11-11T04:15:45.415Z,0
2018-11-11T04:16:54.989Z,0
2018-11-11T04:18:04.855Z,0
2018-11-11T04:19:14.987Z,0
2018-11-11T04:20:24.849Z,0
2018-11-11T04:21:34.701Z,0
2018-11-11T04:22:44.565Z,0
2018-11-11T04:23:54.415Z,0
2018-11-11T04:25:04.043Z,0
2018-11-11T04:26:13.631Z,0
2018-11-11T04:27:23.765Z,0
2018-11-11T04:28:33.907Z,0
2018-11-11T04:29:44.088Z,0
2018-11-11T04:30:54.228Z,0
2018-11-11T04:32:04.355Z,0
2018-11-11T04:33:14.218Z,0
2018-11-11T04:34:24.070Z,0
2018-11-11T04:35:33.935Z,0
2018-11-11T04:36:44.071Z,0
2018-11-11T04:37:53.937Z,0
2018-11-11T04:39:03.690Z,0
2018-11-11T04:40:13.986Z,0
2018-11-11T04:41:23.584Z,0
2018-11-11T04:42:33.164Z,0
2018-11-11T04:43:43.296Z,0
2018-11-11T04:44:53.150Z,0
2018-11-11T04:46:03.016Z,0
2018-11-11T04:47:12.645Z,0
2018-11-11T04:48:22.786Z,0
2018-11-11T04:49:32.650Z,0
2018-11-11T04:50:42.785Z,0
2018-11-11T04:51:52.639Z,0
2018-11-11T04:53:02.772Z,0
2018-11-11T04:54:12.902Z,0
2018-11-11T04:55:22.809Z,0
2018-11-11T04:56:32.666Z,0
2018-11-11T04:57:42.802Z,0
2018-11-11T04:58:52.950Z,0
2018-11-11T05:00:03.086Z,0
2018-11-11T05:01:13.033Z,0
2018-11-11T05:02:23.219Z,0
2018-11-11T05:03:33.074Z,0
2018-11-11T05:04:43.659Z,0
2018-11-11T05:05:53.838Z,0
2018-11-11T05:07:03.714Z,0
2018-11-11T05:08:13.564Z,0
2018-11-11T05:09:23.146Z,0
2018-11-11T05:10:33.049Z,0
2018-11-11T05:11:42.905Z,0
2018-11-11T05:12:53.038Z,0
2018-11-11T05:14:03.169Z,0
2018-11-11T05:15:12.774Z,0
2018-11-11T05:16:22.917Z,0
2018-11-11T05:17:32.771Z,0
2018-11-11T05:18:42.621Z,0
2018-11-11T05:19:52.745Z,0
2018-11-11T05:21:02.608Z,0
2018-11-11T05:22:12.469Z,0
2018-11-11T05:23:22.339Z,0
2018-11-11T05:24:31.921Z,0
2018-11-11T05:25:41.509Z,0
2018-11-11T05:26:51.646Z,0
2018-11-11T05:28:01.777Z,0
2018-11-11T05:29:11.630Z,0
2018-11-11T05:30:21.777Z,0
2018-11-11T05:31:31.355Z,0
2018-11-11T05:32:40.927Z,0
2018-11-11T05:33:55.426Z,0
2018-11-11T05:35:05.282Z,0
2018-11-11T05:36:15.137Z,0
2018-11-11T05:37:25.003Z,0
2018-11-11T05:38:34.580Z,0
2018-11-11T05:39:44.432Z,0
2018-11-11T05:40:54.305Z,0
2018-11-11T05:42:04.452Z,0
2018-11-11T05:43:15.552Z,0
2018-11-11T05:44:25.411Z,0
2018-11-11T05:45:35.263Z,0
2018-11-11T05:46:44.847Z,0
2018-11-11T05:47:54.980Z,0
2018-11-11T05:49:04.565Z,0
2018-11-11T05:50:14.423Z,0
2018-11-11T05:51:24.551Z,0
2018-11-11T05:52:34.130Z,0
2018-11-11T05:53:43.703Z,0
2018-11-11T05:54:53.842Z,0
2018-11-11T05:56:03.144Z,0
2018-11-11T05:57:13.293Z,0
2018-11-11T05:58:23.427Z,0
2018-11-11T05:59:33.283Z,0
2018-11-11T06:00:43.139Z,0
2018-11-11T06:01:52.716Z,0
2018-11-11T06:03:02.299Z,0
2018-11-11T06:04:12.153Z,0
2018-11-11T06:05:22.287Z,0
2018-11-11T06:06:32.417Z,0
2018-11-11T06:07:41.992Z,0
2018-11-11T06:08:51.853Z,0
2018-11-11T06:10:01.700Z,0
2018-11-11T06:11:11.845Z,0
2018-11-11T06:12:21.698Z,0
2018-11-11T06:13:31.843Z,0
2018-11-11T06:14:41.972Z,0
2018-11-11T06:15:52.156Z,0
2018-11-11T06:17:02.280Z,0
2018-11-11T06:18:11.862Z,0
2018-11-11T06:19:21.440Z,0
2018-11-11T06:20:31.564Z,0
2018-11-11T06:21:41.689Z,0
2018-11-11T06:22:51.823Z,0
2018-11-11T06:24:01.680Z,0
2018-11-11T06:25:11.537Z,0
2018-11-11T06:26:21.681Z,0
2018-11-11T06:27:32.135Z,0
2018-11-11T06:28:42.437Z,0
2018-11-11T06:29:52.301Z,0
2018-11-11T06:31:02.430Z,0
2018-11-11T06:32:12.057Z,0
2018-11-11T06:33:21.934Z,0
2018-11-11T06:34:32.065Z,0
2018-11-11T06:35:41.646Z,0
2018-11-11T06:36:51.784Z,0
2018-11-11T06:38:01.635Z,4
2018-11-11T06:39:11.489Z,4
2018-11-11T06:40:21.621Z,4
2018-11-11T06:41:50.757Z,4
2018-11-11T06:43:01.141Z,4
2018-11-11T06:44:11.277Z,4
2018-11-11T06:45:20.953Z,4
2018-11-11T06:46:31.082Z,8
2018-11-11T06:47:40.931Z,8
2018-11-11T06:48:50.783Z,12
2018-11-11T06:50:00.633Z,12
2018-11-11T06:51:10.483Z,16
2018-11-11T06:52:20.338Z,12
2018-11-11T06:53:30.468Z,16
2018-11-11T06:54:40.600Z,16
2018-11-11T06:55:50.459Z,16
2018-11-11T06:57:00.586Z,20
2018-11-11T06:58:11.071Z,20
2018-11-11T06:59:20.900Z,20
2018-11-11T07:00:31.031Z,20
2018-11-11T07:01:41.166Z,20
2018-11-11T07:02:51.015Z,24
2018-11-11T07:04:01.141Z,24
2018-11-11T07:05:11.007Z,32
2018-11-11T07:06:21.140Z,36
2018-11-11T07:07:31.232Z,40
2018-11-11T07:08:41.167Z,36
2018-11-11T07:09:51.301Z,40
2018-11-11T07:11:01.432Z,44
2018-11-11T07:12:11.341Z,48
2018-11-11T07:13:21.482Z,52
2018-11-11T07:14:31.344Z,56
2018-11-11T07:15:41.467Z,64
2018-11-11T07:16:51.048Z,64
2018-11-11T07:18:01.181Z,68
2018-11-11T07:19:10.760Z,80
2018-11-11T07:20:20.882Z,80
2018-11-11T07:21:31.023Z,88
2018-11-11T07:22:41.157Z,96
2018-11-11T07:23:51.405Z,96
2018-11-11T07:25:01.570Z,96
2018-11-11T07:26:10.879Z,108
2018-11-11T07:27:20.730Z,120
2018-11-11T07:28:30.305Z,128
2018-11-11T07:29:40.160Z,124
2018-11-11T07:30:50.011Z,136
2018-11-11T07:31:59.866Z,152
2018-11-11T07:33:09.444Z,156
2018-11-11T07:34:19.302Z,144
2018-11-11T07:35:29.450Z,160
2018-11-11T07:36:39.580Z,156
2018-11-11T07:37:49.716Z,160
2018-11-11T07:38:59.850Z,192
2018-11-11T07:40:09.427Z,208
2018-11-11T07:41:19.559Z,240
2018-11-11T07:42:29.907Z,248
2018-11-11T07:43:40.028Z,228
2018-11-11T07:44:49.883Z,228
2018-11-11T07:45:59.737Z,220
2018-11-11T07:47:09.090Z,208
2018-11-11T07:48:19.218Z,184
2018-11-11T07:49:29.071Z,180
2018-11-11T07:50:39.215Z,180
2018-11-11T07:51:49.413Z,172
2018-11-11T07:52:59.620Z,168
2018-11-11T07:54:09.201Z,172
2018-11-11T07:55:19.481Z,176
2018-11-11T07:56:29.397Z,176
2018-11-11T07:57:39.259Z,168
2018-11-11T07:58:49.115Z,172
2018-11-11T07:59:58.973Z,176
2018-11-11T08:01:09.137Z,196
2018-11-11T08:02:19.552Z,212
2018-11-11T08:03:29.759Z,208
2018-11-11T08:04:39.663Z,212
2018-11-11T08:05:49.517Z,216
2018-11-11T08:06:59.687Z,204
2018-11-11T08:08:09.265Z,220
2018-11-11T08:09:19.126Z,236
2018-11-11T08:10:29.252Z,228
2018-11-11T08:11:39.114Z,256
2018-11-11T08:12:48.973Z,284
2018-11-11T08:13:59.103Z,292
2018-11-11T08:15:08.686Z,284
2018-11-11T08:16:18.821Z,276
2018-11-11T08:17:28.666Z,268
2018-11-11T08:18:38.795Z,300
2018-11-11T08:19:48.373Z,384
2018-11-11T08:20:58.496Z,432
2018-11-11T08:22:08.638Z,392
2018-11-11T08:23:18.773Z,404
2018-11-11T08:24:28.345Z,428
2018-11-11T08:25:38.637Z,424
2018-11-11T08:26:48.768Z,452
2018-11-11T08:27:58.904Z,472
2018-11-11T08:29:08.477Z,476
2018-11-11T08:30:18.612Z,456
2018-11-11T08:31:28.735Z,456
2018-11-11T08:32:38.859Z,516
2018-11-11T08:33:48.716Z,492
2018-11-11T08:34:58.572Z,508
2018-11-11T08:36:08.421Z,468
2018-11-11T08:37:18.276Z,464
2018-11-11T08:38:28.452Z,516
2018-11-11T08:39:38.306Z,520
2018-11-11T08:40:48.662Z,560
2018-11-11T08:41:58.790Z,596
2018-11-11T08:43:08.945Z,616
2018-11-11T08:44:19.077Z,556
2018-11-11T08:45:29.208Z,552
2018-11-11T08:46:39.061Z,576
2018-11-11T08:47:48.921Z,628
2018-11-11T08:48:58.777Z,688
2018-11-11T08:50:08.633Z,756
2018-11-11T08:51:18.756Z,816
2018-11-11T08:52:28.885Z,848
2018-11-11T08:53:38.740Z,840
2018-11-11T08:54:48.590Z,888
2018-11-11T08:55:58.714Z,948
2018-11-11T08:57:08.564Z,952
2018-11-11T08:58:18.736Z,1000
2018-11-11T08:59:28.590Z,1068
2018-11-11T09:00:38.178Z,1016
2018-11-11T09:01:48.052Z,1052
2018-11-11T09:02:58.182Z,1124
2018-11-11T09:04:08.308Z,1112
2018-11-11T09:05:18.446Z,1056
2018-11-11T09:06:28.583Z,1192
2018-11-11T09:07:38.714Z,1228
2018-11-11T09:08:48.573Z,1236
2018-11-11T09:09:58.437Z,1096
2018-11-11T09:11:08.569Z,1176
2018-11-11T09:12:18.714Z,1364
2018-11-11T09:13:28.849Z,1412
2018-11-11T09:14:38.425Z,1404
2018-11-11T09:15:48.551Z,1216
2018-11-11T09:16:58.408Z,984
2018-11-11T09:18:08.537Z,1012
2018-11-11T09:19:18.659Z,912
2018-11-11T09:20:28.789Z,912
2018-11-11T09:21:39.343Z,772
2018-11-11T09:22:49.241Z,856
2018-11-11T09:23:59.594Z,928
2018-11-11T09:25:09.446Z,980
2018-11-11T09:26:19.057Z,1024
2018-11-11T09:27:28.909Z,1008
2018-11-11T09:28:39.044Z,1116
2018-11-11T09:29:49.652Z,1120
2018-11-11T09:30:59.777Z,1132
2018-11-11T09:32:09.639Z,1144
2018-11-11T09:33:19.492Z,1212
2018-11-11T09:34:29.344Z,1164
2018-11-11T09:35:39.204Z,1160
2018-11-11T09:36:49.065Z,1352
2018-11-11T09:37:58.920Z,1324
2018-11-11T09:39:08.582Z,1340
2018-11-11T09:40:18.895Z,1416
2018-11-11T09:41:29.026Z,1456
2018-11-11T09:42:39.312Z,1508
2018-11-11T09:43:49.652Z,1516
2018-11-11T09:44:59.509Z,1432
2018-11-11T09:46:09.644Z,1420
2018-11-11T09:47:19.775Z,1400
2018-11-11T09:48:29.624Z,1516
2018-11-11T09:49:39.201Z,1604
2018-11-11T09:50:49.339Z,1640
2018-11-11T09:51:59.462Z,1584
2018-11-11T09:53:09.316Z,1776
2018-11-11T09:54:19.447Z,1888
2018-11-11T09:55:29.023Z,1868
2018-11-11T09:56:39.162Z,1892
2018-11-11T09:57:49.303Z,1860
2018-11-11T09:58:59.438Z,1804
2018-11-11T10:00:08.751Z,1684
2018-11-11T10:01:18.886Z,1448
2018-11-11T10:02:29.021Z,1464
2018-11-11T10:03:38.603Z,1540
2018-11-11T10:04:48.932Z,1620
2018-11-11T10:05:59.086Z,1748
2018-11-11T10:07:09.743Z,1780
2018-11-11T10:08:20.091Z,2168
2018-11-11T10:09:29.677Z,2320
2018-11-11T10:10:39.809Z,2420
2018-11-11T10:11:49.937Z,2300
2018-11-11T10:13:00.321Z,2180
2018-11-11T10:14:09.905Z,2236
2018-11-11T10:15:19.491Z,2288
2018-11-11T10:16:29.345Z,2356
2018-11-11T10:17:39.196Z,2528
2018-11-11T10:18:49.332Z,2752
2018-11-11T10:19:59.616Z,2736
2018-11-11T10:21:09.243Z,2524
2018-11-11T10:22:19.379Z,2276
2018-11-11T10:23:29.520Z,1956
2018-11-11T10:24:39.647Z,1780
2018-11-11T10:25:49.501Z,1844
2018-11-11T10:26:59.356Z,1868
2018-11-11T10:28:08.963Z,1612
2018-11-11T10:29:19.087Z,1664
2018-11-11T10:30:29.449Z,1836
2018-11-11T10:31:39.306Z,1780
2018-11-11T10:32:49.159Z,1656
2018-11-11T10:33:59.011Z,1700
2018-11-11T10:35:08.874Z,1568
2018-11-11T10:36:19.006Z,1464
2018-11-11T10:37:29.572Z,1404
2018-11-11T10:38:39.506Z,1192
2018-11-11T10:39:49.636Z,1256
2018-11-11T10:40:59.761Z,1288
2018-11-11T10:42:09.625Z,1296
2018-11-11T10:43:19.771Z,1188
2018-11-11T10:44:29.719Z,1144
2018-11-11T10:45:39.904Z,1144
2018-11-11T10:46:50.036Z,1200
2018-11-11T10:48:00.316Z,1236
2018-11-11T10:49:10.182Z,1328
2018-11-11T10:50:20.039Z,1572
2018-11-11T10:51:29.946Z,1796
2018-11-11T10:52:40.072Z,1956
2018-11-11T10:53:50.253Z,2048
2018-11-11T10:55:00.103Z,1920
2018-11-11T10:56:09.675Z,1904
2018-11-11T10:57:19.528Z,1828
2018-11-11T10:58:29.108Z,1732
2018-11-11T10:59:39.014Z,1616
2018-11-11T11:00:48.591Z,1476
2018-11-11T11:01:58.721Z,1388
2018-11-11T11:03:08.309Z,1256
2018-11-11T11:04:18.172Z,1332
2018-11-11T11:05:28.352Z,1404
2018-11-11T11:06:38.212Z,1524
2018-11-11T11:07:48.349Z,1524
2018-11-11T11:08:58.472Z,1408
2018-11-11T11:10:08.621Z,1420
2018-11-11T11:11:18.529Z,1328
2018-11-11T11:12:28.387Z,1204
2018-11-11T11:13:39.011Z,1204
2018-11-11T11:14:48.876Z,1108
2018-11-11T11:15:59.002Z,1080
2018-11-11T11:17:08.355Z,1024
2018-11-11T11:18:18.210Z,996
2018-11-11T11:19:28.062Z,928
2018-11-11T11:20:37.909Z,996
2018-11-11T11:21:48.034Z,960
2018-11-11T11:22:57.552Z,968
2018-11-11T11:24:07.866Z,996
2018-11-11T11:25:18.009Z,1000
2018-11-11T11:26:28.138Z,1260
2018-11-11T11:27:38.268Z,1356
2018-11-11T11:28:48.173Z,1404
2018-11-11T11:29:58.024Z,1424
2018-11-11T11:31:07.878Z,1364
2018-11-11T11:32:18.001Z,1304
2018-11-11T11:33:27.220Z,1260
2018-11-11T11:34:37.169Z,1216
2018-11-11T11:35:47.800Z,1276
2018-11-11T11:36:58.175Z,1368
2018-11-11T11:38:08.500Z,1396
2018-11-11T11:39:18.433Z,1364
2018-11-11T11:40:28.604Z,1300
2018-11-11T11:41:38.736Z,1260
2018-11-11T11:42:48.320Z,1244
2018-11-11T11:43:58.335Z,1192
2018-11-11T11:45:08.594Z,1120
2018-11-11T11:46:18.224Z,1096
2018-11-11T11:47:28.477Z,1116
2018-11-11T11:48:38.161Z,1180
2018-11-11T11:49:48.158Z,1276
2018-11-11T11:50:58.417Z,1384
2018-11-11T11:52:08.458Z,1668
2018-11-11T11:53:18.621Z,1996
2018-11-11T11:54:28.755Z,2288
2018-11-11T11:55:38.885Z,2488
2018-11-11T11:56:49.013Z,2532
2018-11-11T11:57:59.397Z,2388
2018-11-11T11:59:09.685Z,2116
2018-11-11T12:00:19.540Z,1784
2018-11-11T12:01:29.445Z,1600
2018-11-11T12:02:39.045Z,1584
2018-11-11T12:03:49.431Z,1616
2018-11-11T12:04:59.560Z,1652
2018-11-11T12:06:09.423Z,1720
2018-11-11T12:07:19.279Z,1780
2018-11-11T12:08:29.142Z,1852
2018-11-11T12:09:39.272Z,1900
2018-11-11T12:10:49.398Z,1888
2018-11-11T12:11:59.259Z,1832
2018-11-11T12:13:09.120Z,1688
2018-11-11T12:14:18.696Z,1528
2018-11-11T12:15:28.656Z,1468
2018-11-11T12:16:38.457Z,1360
2018-11-11T12:17:48.168Z,1208
2018-11-11T12:18:57.749Z,1060
2018-11-11T12:20:07.605Z,1096
2018-11-11T12:21:17.783Z,1092
2018-11-11T12:22:27.642Z,1108
2018-11-11T12:23:37.230Z,1188
2018-11-11T12:24:46.542Z,1216
2018-11-11T12:25:56.398Z,1068
2018-11-11T12:27:06.026Z,1200
2018-11-11T12:28:16.164Z,1196
2018-11-11T12:29:26.026Z,1288
2018-11-11T12:30:35.712Z,1484
2018-11-11T12:31:45.296Z,1592
2018-11-11T12:32:55.205Z,1612
2018-11-11T12:34:05.334Z,1692
2018-11-11T12:35:15.234Z,1788
2018-11-11T12:36:25.362Z,1860
2018-11-11T12:37:35.487Z,1976
2018-11-11T12:38:45.690Z,1916
2018-11-11T12:39:56.762Z,1800
2018-11-11T12:41:06.754Z,1748
2018-11-11T12:42:16.886Z,1484
2018-11-11T12:43:27.191Z,1388
2018-11-11T12:44:37.214Z,1336
2018-11-11T12:45:47.467Z,1244
2018-11-11T12:46:57.864Z,1140
2018-11-11T12:48:07.982Z,1040
2018-11-11T12:49:18.418Z,952
2018-11-11T12:50:29.318Z,868
2018-11-11T12:51:39.209Z,820
2018-11-11T12:52:49.116Z,804
2018-11-11T12:53:59.248Z,784
2018-11-11T12:55:08.874Z,772
2018-11-11T12:56:19.209Z,776
2018-11-11T12:57:29.065Z,788
2018-11-11T12:58:38.925Z,768
2018-11-11T12:59:48.778Z,808
2018-11-11T13:00:59.197Z,824
2018-11-11T13:02:09.099Z,816
2018-11-11T13:03:18.948Z,812
2018-11-11T13:04:28.576Z,860
2018-11-11T13:05:38.480Z,904
2018-11-11T13:06:48.610Z,868
2018-11-11T13:07:59.170Z,844
2018-11-11T13:09:08.783Z,864
2018-11-11T13:10:18.360Z,840
2018-11-11T13:11:28.779Z,796
2018-11-11T13:12:38.764Z,724
2018-11-11T13:13:48.747Z,804
2018-11-11T13:14:58.909Z,752
2018-11-11T13:16:08.211Z,772
2018-11-11T13:17:18.061Z,844
2018-11-11T13:18:27.916Z,792
2018-11-11T13:19:37.878Z,680
2018-11-11T13:20:47.456Z,568
2018-11-11T13:21:57.728Z,520
2018-11-11T13:23:08.131Z,616
2018-11-11T13:24:17.708Z,712
2018-11-11T13:25:27.609Z,688
2018-11-11T13:26:37.456Z,592
2018-11-11T13:27:47.309Z,568
2018-11-11T13:28:57.158Z,600
2018-11-11T13:30:06.744Z,560
2018-11-11T13:31:16.644Z,516
2018-11-11T13:32:26.507Z,540
2018-11-11T13:33:36.630Z,564
2018-11-11T13:34:46.486Z,544
2018-11-11T13:35:56.616Z,556
2018-11-11T13:37:06.747Z,564
2018-11-11T13:38:17.040Z,624
2018-11-11T13:39:27.406Z,648
2018-11-11T13:40:37.273Z,548
2018-11-11T13:41:47.128Z,504
2018-11-11T13:42:57.309Z,480
2018-11-11T13:44:07.456Z,424
2018-11-11T13:45:17.585Z,392
2018-11-11T13:46:28.313Z,368
2018-11-11T13:47:38.667Z,340
2018-11-11T13:48:48.576Z,288
2018-11-11T13:49:58.169Z,252
2018-11-11T13:51:08.302Z,248
2018-11-11T13:52:18.511Z,232
2018-11-11T13:53:28.673Z,220
2018-11-11T13:54:38.581Z,232
2018-11-11T13:55:48.679Z,232
2018-11-11T13:56:58.480Z,248
2018-11-11T13:58:08.613Z,240
2018-11-11T13:59:18.469Z,228
2018-11-11T14:00:28.603Z,220
2018-11-11T14:01:39.195Z,212
2018-11-11T14:02:49.302Z,188
2018-11-11T14:03:59.438Z,164
2018-11-11T14:05:09.298Z,152
2018-11-11T14:06:18.650Z,148
2018-11-11T14:07:28.506Z,148
2018-11-11T14:08:38.636Z,140
2018-11-11T14:09:48.215Z,144
2018-11-11T14:10:58.743Z,152
2018-11-11T14:12:08.595Z,148
2018-11-11T14:13:18.448Z,144
2018-11-11T14:14:28.302Z,140
2018-11-11T14:15:38.444Z,136
2018-11-11T14:16:48.025Z,128
2018-11-11T14:17:58.238Z,120
2018-11-11T14:19:09.455Z,112
2018-11-11T14:20:20.553Z,116
2018-11-11T14:21:30.776Z,120
2018-11-11T14:22:40.915Z,124
2018-11-11T14:23:51.351Z,124
2018-11-11T14:25:01.879Z,128
2018-11-11T14:26:11.588Z,128
2018-11-11T14:27:21.251Z,120
2018-11-11T14:28:31.100Z,112
2018-11-11T14:29:41.010Z,112
2018-11-11T14:30:51.154Z,112
2018-11-11T14:32:00.807Z,112
2018-11-11T14:33:10.392Z,112
2018-11-11T14:34:20.259Z,112
2018-11-11T14:35:30.217Z,104
2018-11-11T14:36:40.075Z,100
2018-11-11T14:37:50.203Z,92
2018-11-11T14:39:00.331Z,96
2018-11-11T14:40:09.913Z,104
2018-11-11T14:41:19.590Z,92
2018-11-11T14:42:29.445Z,88
2018-11-11T14:43:39.583Z,80
2018-11-11T14:44:48.884Z,76
2018-11-11T14:45:59.269Z,64
2018-11-11T14:47:09.232Z,60
2018-11-11T14:48:19.086Z,48
2018-11-11T14:49:28.404Z,36
2018-11-11T14:50:38.260Z,32
2018-11-11T14:51:48.324Z,32
2018-11-11T14:52:58.922Z,32
2018-11-11T14:54:09.228Z,36
2018-11-11T14:55:19.525Z,40
2018-11-11T14:56:29.848Z,36
2018-11-11T14:57:39.425Z,32
2018-11-11T14:58:49.838Z,28
2018-11-11T14:59:59.500Z,24
2018-11-11T15:01:09.363Z,28
2018-11-11T15:02:19.881Z,24
2018-11-11T15:03:30.260Z,20
2018-11-11T15:04:40.435Z,16
2018-11-11T15:05:50.287Z,20
2018-11-11T15:07:00.417Z,20
2018-11-11T15:08:11.111Z,12
2018-11-11T15:09:21.263Z,16
2018-11-11T15:10:31.439Z,16
2018-11-11T15:11:41.585Z,12
2018-11-11T15:12:51.202Z,12
2018-11-11T15:14:00.512Z,8
2018-11-11T15:15:10.649Z,12
2018-11-11T15:16:20.883Z,8
2018-11-11T15:17:31.013Z,8
2018-11-11T15:18:40.872Z,8
2018-11-11T15:19:50.754Z,4
2018-11-11T15:21:01.758Z,8
2018-11-11T15:22:11.814Z,8
2018-11-11T15:23:21.941Z,8
2018-11-11T15:24:32.078Z,4
2018-11-11T15:25:42.210Z,4
2018-11-11T15:26:51.784Z,4
2018-11-11T15:28:01.968Z,4
2018-11-11T15:29:11.824Z,4
2018-11-11T15:30:21.886Z,4
2018-11-11T15:31:31.688Z,0
2018-11-11T15:32:41.491Z,4
2018-11-11T15:33:51.629Z,4
2018-11-11T15:35:01.209Z,4
2018-11-11T15:36:11.343Z,4
2018-11-11T15:37:21.470Z,0
2018-11-11T15:38:31.597Z,0
2018-11-11T15:39:41.464Z,0
2018-11-11T15:40:51.324Z,0
2018-11-11T15:42:01.459Z,0
2018-11-11T15:43:11.598Z,0
2018-11-11T15:44:21.724Z,0
2018-11-11T15:45:31.913Z,0
2018-11-11T15:46:42.059Z,0
2018-11-11T15:47:51.930Z,0
2018-11-11T15:49:01.790Z,0
2018-11-11T15:50:11.926Z,0
2018-11-11T15:51:22.100Z,0
2018-11-11T15:52:32.400Z,0
2018-11-11T15:53:42.262Z,0
2018-11-11T15:54:52.386Z,0
2018-11-11T15:56:02.511Z,0
2018-11-11T15:57:12.145Z,0
2018-11-11T15:58:21.999Z,0
2018-11-11T15:59:32.110Z,0
2018-11-11T16:00:42.243Z,0
2018-11-11T16:01:52.381Z,0
2018-11-11T16:03:02.628Z,0
2018-11-11T16:04:12.212Z,0
2018-11-11T16:05:22.071Z,0
2018-11-11T16:06:33.034Z,0
2018-11-11T16:07:43.320Z,0
2018-11-11T16:08:53.501Z,0
2018-11-11T16:10:03.352Z,0
2018-11-11T16:11:13.207Z,0
2018-11-11T16:12:23.061Z,0
2018-11-11T16:13:33.201Z,0
2018-11-11T16:14:43.108Z,0
2018-11-11T16:15:52.689Z,0
2018-11-11T16:17:02.540Z,0
2018-11-11T16:18:12.405Z,0
2018-11-11T16:19:22.534Z,0
2018-11-11T16:20:33.320Z,0
2018-11-11T16:21:43.453Z,0
2018-11-11T16:22:53.625Z,0
2018-11-11T16:24:03.199Z,0
2018-11-11T16:25:13.336Z,0
2018-11-11T16:26:23.012Z,0
2018-11-11T16:27:32.884Z,0
2018-11-11T16:28:43.010Z,0
2018-11-11T16:29:52.879Z,0
2018-11-11T16:31:03.024Z,0
2018-11-11T16:32:12.724Z,0